Knoxville, Illinois
Current Conditions -  °F | °C
As of 2:55 PM on Tuesday 27 Jan 2015 (Local Time) from KGBG Reporting Station
Overcast Overcast  
Wind Chill: 21°   Ceiling: 1200
Heat Index: 28°   Visibility: 10mi
Dew Point: 25°   Wind: 7mph
Humidity: 86%   Direction: 40°NE
Pressure: 30.21"   Gusts: NA
Location:  40.91°N, 90.28°W
Report Text: KGBG 272055Z AUTO 04006KT 10SM OVC012 M02/M04 A3021 RMK AO2 T10201040
Loading
Personal Weather Stations






























Interactive Weather Map New forecast layout! Learn more

10-Day Weather Forecast

Advertisements
Track Severe Weather on mobile